Time;durP1;ratioP1;P1;durP2;ratioP2;P2;SDS_P1;SDS_P2;PMS_P1;PMS_P2;Temp;Humidity;BMP_temperature;BMP_pressure;BME280_temperature;BME280_humidity;BME280_pressure;Samples;Min_cycle;Max_cycle;Signal;HPM_P1;HPM_P2
2023/11/27 00:06:37;;;;;;;4.80;4.40;;;;;;;9.23;55.39;98477.16;7981542;24;20521;-90
2023/11/27 00:23:23;;;;;;;6.50;4.77;;;;;;;8.77;55.54;98405.50;8279500;23;20200;-92
2023/11/27 00:26:45;;;;;;;5.57;4.07;;;;;;;8.87;54.99;98415.84;8382957;23;20180;-92
2023/11/27 00:30:07;;;;;;;4.10;3.80;;;;;;;8.69;56.43;98450.53;8396947;23;20711;-92
2023/11/27 00:33:29;;;;;;;5.03;4.07;;;;;;;8.50;56.32;98443.25;8423749;23;20190;-92
2023/11/27 00:36:50;;;;;;;5.40;4.50;;;;;;;8.51;56.84;98434.97;8410533;23;20581;-92
2023/11/27 00:40:13;;;;;;;5.23;4.20;;;;;;;8.48;57.07;98439.94;8424378;23;20554;-92
2023/11/27 00:43:35;;;;;;;4.50;4.10;;;;;;;8.66;56.50;98441.00;8407936;23;20753;-93
2023/11/27 00:47:22;;;;;;;4.20;3.77;;;;;;;8.73;55.87;98441.84;8413039;23;20260;-89
2023/11/27 01:12:45;;;;;;;4.57;3.73;;;;;;;8.39;56.33;98398.13;8195176;23;20212;-91
2023/11/27 01:16:07;;;;;;;4.53;4.13;;;;;;;7.62;57.42;98351.06;8314804;23;20224;-91
2023/11/27 01:19:29;;;;;;;4.67;3.97;;;;;;;7.90;57.12;98333.88;8321801;23;20217;-91
2023/11/27 01:22:50;;;;;;;4.67;3.97;;;;;;;8.08;56.98;98358.31;8390581;23;20208;-92
2023/11/27 02:16:43;;;;;;;4.87;3.50;;;;;;;8.24;55.83;98287.38;8210445;24;20277;-89
2023/11/27 03:08:27;;;;;;;3.20;2.90;;;;;;;8.96;51.52;98235.31;8099038;24;20236;-91
2023/11/27 04:12:07;;;;;;;5.27;3.53;;;;;;;8.84;53.98;98187.81;8022171;24;20212;-92
2023/11/27 04:15:29;;;;;;;4.10;3.80;;;;;;;8.14;55.12;98198.28;8211618;24;20210;-91
2023/11/27 04:18:53;;;;;;;3.30;3.10;;;;;;;8.21;54.14;98092.59;8219897;24;20677;-92
2023/11/27 04:35:50;;;;;;;5.27;3.93;;;;;;;8.15;55.95;98122.09;8294724;24;20157;-88
2023/11/27 04:52:07;;;;;;;5.90;5.30;;;;;;;8.43;55.99;98142.34;8109016;24;20203;-91
2023/11/27 05:04:01;;;;;;;5.17;4.27;;;;;;;8.05;56.82;98135.09;8038306;24;20213;-91
2023/11/27 05:11:50;;;;;;;4.80;4.30;;;;;;;8.17;55.87;98122.69;8357527;23;20193;-91
2023/11/27 05:24:16;;;;;;;5.23;4.73;;;;;;;8.13;56.13;98111.53;8162435;24;20181;-88
2023/11/27 05:27:50;;;;;;;4.43;4.00;;;;;;;8.08;55.47;98059.53;8336424;23;20298;-89
2023/11/27 06:01:29;;;;;;;5.03;4.53;;;;;;;7.24;57.49;98017.38;8062012;24;20226;-90
2023/11/27 06:04:55;;;;;;;5.33;4.87;;;;;;;7.01;58.44;98020.38;8099932;24;20185;-93
2023/11/27 06:08:20;;;;;;;5.17;4.67;;;;;;;7.40;57.41;98019.66;8212904;24;20206;-90
2023/11/27 06:34:06;;;;;;;5.03;4.63;;;;;;;7.58;56.92;98050.22;8472642;23;20178;-89
2023/11/27 06:37:47;;;;;;;7.17;4.50;;;;;;;6.76;57.62;97949.63;8546942;23;20219;-88
2023/11/27 06:41:10;;;;;;;6.27;5.20;;;;;;;7.33;58.07;98045.63;8570869;23;20588;-89
2023/11/27 06:53:55;;;;;;;4.10;3.73;;;;;;;8.00;55.56;98028.34;8568267;23;20155;-88
2023/11/27 08:04:11;;;;;;;4.23;3.83;;;;;;;7.67;53.76;97855.81;8543788;23;20200;-85
2023/11/27 08:07:36;;;;;;;5.13;3.70;;;;;;;8.28;53.14;97916.19;8423084;23;20662;-87
2023/11/27 08:12:09;;;;;;;4.90;4.40;;;;;;;8.87;52.24;97923.94;8423694;23;20204;-85
2023/11/27 08:24:52;;;;;;;3.93;3.63;;;;;;;9.34;52.05;97913.50;8423334;23;20151;-86
2023/11/27 08:28:15;;;;;;;3.97;3.67;;;;;;;9.53;50.18;97907.97;8419385;23;20203;-84
2023/11/27 08:31:36;;;;;;;4.17;3.77;;;;;;;9.25;50.80;97848.41;8422888;23;20196;-84
2023/11/27 08:35:01;;;;;;;4.23;3.83;;;;;;;9.66;49.95;97894.41;8415081;23;20622;-84
2023/11/27 08:38:24;;;;;;;4.00;3.70;;;;;;;9.50;50.56;97889.56;8426863;23;20176;-83
2023/11/27 08:41:55;;;;;;;4.67;3.57;;;;;;;9.94;50.21;97889.34;8427629;23;20200;-91
2023/11/27 08:45:42;;;;;;;;;;;;;;;;;;;;;
2023/11/27 08:49:04;;;;;;;4.70;4.00;;;;;;;9.55;50.98;97888.88;8416096;23;20508;-85
2023/11/27 08:52:28;;;;;;;3.77;3.43;;;;;;;9.61;49.27;97886.16;8423036;23;20193;-85
2023/11/27 08:55:49;;;;;;;4.17;3.80;;;;;;;9.85;50.38;97876.38;8410595;23;20202;-84
2023/11/27 08:59:11;;;;;;;3.80;3.50;;;;;;;10.40;49.87;97876.19;8422588;23;20184;-84
2023/11/27 09:02:38;;;;;;;6.97;3.70;;;;;;;10.28;49.56;97867.22;8424869;23;20199;-82
2023/11/27 09:05:59;;;;;;;3.83;3.40;;;;;;;9.74;50.31;97842.97;8415138;23;20203;-82
2023/11/27 09:09:23;;;;;;;8.10;5.63;;;;;;;9.96;48.57;97786.78;8426173;23;20237;-82
2023/11/27 09:12:45;;;;;;;6.23;5.23;;;;;;;9.86;48.73;97784.63;8424369;23;20200;-82
2023/11/27 09:16:08;;;;;;;3.83;3.03;;;;;;;9.56;48.04;97782.94;8422865;23;20184;-82
2023/11/27 09:19:31;;;;;;;3.43;3.00;;;;;;;10.09;47.30;97840.56;8409668;23;20181;-82
2023/11/27 09:22:53;;;;;;;3.30;3.10;;;;;;;9.98;46.12;97831.28;8423886;23;20718;-82
2023/11/27 09:26:14;;;;;;;3.30;2.67;;;;;;;10.16;46.83;97798.19;8409605;23;20187;-83
2023/11/27 09:29:36;;;;;;;3.07;2.77;;;;;;;10.05;46.08;97786.28;8410282;23;20204;-83
2023/11/27 09:32:57;;;;;;;7.27;3.53;;;;;;;10.64;46.42;97807.06;8410799;23;20184;-83
2023/11/27 09:36:21;;;;;;;8.40;4.30;;;;;;;10.99;45.83;97808.78;8430091;23;20185;-83
2023/11/27 09:39:42;;;;;;;4.03;3.10;;;;;;;11.04;45.09;97808.91;8435849;23;20211;-82
2023/11/27 09:43:04;;;;;;;4.73;3.10;;;;;;;10.96;45.56;97811.13;8428813;23;20236;-82
2023/11/27 09:46:27;;;;;;;6.43;3.07;;;;;;;10.82;45.33;97790.81;8426074;23;20187;-83
2023/11/27 09:49:50;;;;;;;4.53;3.40;;;;;;;10.89;45.75;97796.91;8411449;23;20216;-83
2023/11/27 09:53:19;;;;;;;3.13;2.90;;;;;;;10.25;45.60;97777.97;8422416;23;20636;-83
2023/11/27 09:56:42;;;;;;;3.73;3.23;;;;;;;10.84;45.30;97769.81;8426595;23;20167;-83
2023/11/27 10:00:07;;;;;;;3.40;3.00;;;;;;;10.78;44.73;97759.97;8414690;23;20239;-83
2023/11/27 10:03:29;;;;;;;3.77;3.40;;;;;;;10.83;45.23;97738.53;8424392;23;20183;-83
2023/11/27 10:06:52;;;;;;;5.37;3.63;;;;;;;10.43;45.37;97670.97;8419765;23;20613;-85
2023/11/27 10:10:26;;;;;;;3.57;3.03;;;;;;;10.97;44.60;97703.03;8406638;23;20209;-88
2023/11/27 10:13:55;;;;;;;4.13;3.33;;;;;;;10.86;45.75;97714.63;8425444;23;20552;-92
2023/11/27 10:17:17;;;;;;;4.20;3.10;;;;;;;10.27;45.67;97698.56;8422110;23;20165;-90
2023/11/27 10:24:44;;;;;;;3.67;3.37;;;;;;;10.47;44.48;97568.94;8427556;23;20192;-86
2023/11/27 10:28:07;;;;;;;3.47;3.20;;;;;;;11.54;43.91;97679.72;8428625;23;20177;-85
2023/11/27 10:34:52;;;;;;;3.30;3.00;;;;;;;11.87;42.37;97671.81;8616375;23;20193;-85
2023/11/27 10:38:20;;;;;;;3.87;3.20;;;;;;;11.89;43.09;97651.59;8616352;23;20250;-82
2023/11/27 10:41:43;;;;;;;3.27;3.00;;;;;;;11.31;42.14;97583.47;8617862;23;20197;-82
2023/11/27 10:45:08;;;;;;;3.10;2.80;;;;;;;11.57;42.83;97636.09;8626602;23;20189;-83
2023/11/27 10:48:30;;;;;;;3.17;2.87;;;;;;;11.36;42.88;97604.34;8617672;23;20197;-82
2023/11/27 10:51:53;;;;;;;4.53;3.00;;;;;;;11.27;43.41;97590.41;8623815;23;20207;-87
2023/11/27 10:55:16;;;;;;;4.23;3.30;;;;;;;11.54;42.74;97591.50;8627127;23;20258;-86
2023/11/27 10:58:39;;;;;;;4.90;3.43;;;;;;;11.14;42.86;97579.03;8629636;23;20492;-87
2023/11/27 11:02:04;;;;;;;3.57;3.10;;;;;;;10.71;42.58;97525.56;8640527;23;20584;-86
2023/11/27 11:05:32;;;;;;;3.73;3.43;;;;;;;11.54;42.73;97574.47;8639478;23;20505;-86
2023/11/27 11:08:53;;;;;;;4.00;3.27;;;;;;;11.41;42.85;97547.78;8635460;23;20185;-84
2023/11/27 11:12:23;;;;;;;3.13;2.83;;;;;;;11.14;41.79;97481.94;8622622;23;20201;-87
2023/11/27 11:15:49;;;;;;;3.43;3.13;;;;;;;10.94;41.99;97478.84;8632530;23;20176;-85
2023/11/27 11:19:16;;;;;;;3.20;2.90;;;;;;;11.48;41.65;97494.47;8624460;23;20201;-86
2023/11/27 11:22:44;;;;;;;3.10;2.90;;;;;;;11.22;41.55;97431.13;8639227;23;20273;-87
2023/11/27 11:26:32;;;;;;;3.20;2.90;;;;;;;11.53;41.21;97470.28;8626654;23;20215;-83
2023/11/27 11:29:57;;;;;;;3.70;3.40;;;;;;;12.28;40.65;97506.66;8641489;23;20259;-83
2023/11/27 11:33:19;;;;;;;3.30;2.93;;;;;;;11.88;40.23;97489.81;8627338;23;20193;-82
2023/11/27 11:36:42;;;;;;;4.23;3.27;;;;;;;11.66;40.22;97433.03;8626294;23;20515;-82
2023/11/27 11:40:05;;;;;;;3.30;3.00;;;;;;;11.92;40.84;97480.16;8629163;23;20197;-83
2023/11/27 11:43:27;;;;;;;3.40;3.10;;;;;;;12.10;40.12;97482.59;8624542;23;20234;-86
2023/11/27 11:46:52;;;;;;;3.37;3.07;;;;;;;11.50;40.64;97416.75;8640956;23;20686;-86
2023/11/27 11:50:24;;;;;;;3.47;3.17;;;;;;;11.57;40.14;97417.44;8629076;23;20209;-86
2023/11/27 11:53:48;;;;;;;4.10;2.87;;;;;;;11.37;39.68;97406.28;8631892;23;20169;-85
2023/11/27 11:57:14;;;;;;;3.00;2.80;;;;;;;11.56;40.34;97459.00;8628415;23;20251;-86
2023/11/27 12:00:43;;;;;;;4.40;2.90;;;;;;;11.56;40.05;97413.13;8627644;23;20197;-87
2023/11/27 12:04:08;;;;;;;4.13;3.73;;;;;;;11.80;40.54;97437.03;8634527;23;20165;-88
2023/11/27 12:07:29;;;;;;;3.17;2.90;;;;;;;10.99;39.68;97433.13;8634505;23;20231;-86
2023/11/27 12:10:52;;;;;;;2.67;2.40;;;;;;;11.13;40.23;97437.16;8633347;23;20214;-87
2023/11/27 12:14:16;;;;;;;3.90;2.53;;;;;;;11.64;39.78;97397.34;8633287;23;20185;-85
2023/11/27 12:17:38;;;;;;;5.67;3.30;;;;;;;11.60;40.43;97395.38;8630138;23;20271;-85
2023/11/27 12:21:04;;;;;;;2.80;2.60;;;;;;;10.96;41.35;97407.44;8628964;23;20196;-86
2023/11/27 12:24:27;;;;;;;3.20;2.90;;;;;;;11.42;40.62;97365.91;8644998;23;20486;-87
2023/11/27 12:27:51;;;;;;;2.50;2.40;;;;;;;11.44;41.02;97390.75;8631490;23;20188;-85
2023/11/27 12:31:14;;;;;;;2.90;2.70;;;;;;;10.98;41.52;97391.84;8632476;23;20243;-85
2023/11/27 12:34:40;;;;;;;7.30;3.97;;;;;;;11.57;41.42;97379.66;8633560;23;20192;-86
2023/11/27 12:38:03;;;;;;;3.43;2.80;;;;;;;11.00;40.55;97361.94;8636377;23;20590;-86
2023/11/27 12:41:29;;;;;;;4.47;3.10;;;;;;;10.67;41.92;97383.41;8644294;22;20182;-86
2023/11/27 12:44:54;;;;;;;3.33;3.00;;;;;;;10.73;42.14;97352.81;8647921;23;20159;-85
2023/11/27 12:48:22;;;;;;;11.27;3.50;;;;;;;10.66;41.93;97292.84;8645379;23;20166;-86
2023/11/27 12:51:45;;;;;;;3.67;2.93;;;;;;;10.73;41.79;97306.97;8648316;23;20205;-86
2023/11/27 12:55:12;;;;;;;5.47;3.87;;;;;;;10.88;42.17;97328.84;8634547;23;20212;-86
2023/11/27 12:58:37;;;;;;;5.40;3.00;;;;;;;10.93;42.88;97355.88;8633469;23;20618;-86
2023/11/27 13:02:00;;;;;;;2.73;2.53;;;;;;;9.57;47.47;97274.19;8624366;23;20305;-88
2023/11/27 13:05:22;;;;;;;3.40;2.60;;;;;;;9.74;47.88;97341.56;8623055;23;20200;-88
2023/11/27 13:08:44;;;;;;;4.13;3.70;;;;;;;9.73;49.18;97332.66;8624411;23;20182;-88
2023/11/27 13:12:15;;;;;;;2.90;2.70;;;;;;;9.48;50.25;97324.03;8639127;23;20203;-88
2023/11/27 13:15:38;;;;;;;4.37;2.93;;;;;;;9.60;48.46;97251.38;8638558;23;20177;-88
2023/11/27 13:19:02;;;;;;;3.73;2.90;;;;;;;10.43;47.45;97301.03;8639245;23;20176;-89
2023/11/27 13:22:24;;;;;;;7.70;5.20;;;;;;;9.53;49.76;97231.84;8639930;23;20190;-88
2023/11/27 13:25:45;;;;;;;3.23;2.90;;;;;;;9.45;50.79;97288.72;8626942;23;20180;-89
2023/11/27 13:29:07;;;;;;;4.83;2.90;;;;;;;9.31;52.38;97311.50;8633023;23;20207;-88
2023/11/27 13:32:29;;;;;;;7.30;3.53;;;;;;;9.30;52.91;97302.63;8635802;23;20209;-88
2023/11/27 13:36:18;;;;;;;3.07;2.60;;;;;;;9.60;53.75;97292.56;8636383;23;20238;-87
2023/11/27 13:39:54;;;;;;;3.13;2.40;;;;;;;9.45;53.53;97288.72;8623407;23;20212;-91
2023/11/27 13:43:17;;;;;;;3.73;3.00;;;;;;;9.51;51.70;97226.69;8637470;23;20175;-90
2023/11/27 13:46:40;;;;;;;4.13;3.70;;;;;;;10.05;52.05;97265.81;8630106;23;20177;-89
2023/11/27 13:50:02;;;;;;;2.90;2.60;;;;;;;9.98;51.41;97254.34;8648211;23;20198;-90
2023/11/27 13:53:25;;;;;;;2.70;2.50;;;;;;;9.77;52.32;97245.03;8637573;23;20220;-90
2023/11/27 13:56:47;;;;;;;3.40;3.10;;;;;;;9.82;51.40;97230.84;8651827;23;20177;-90
2023/11/27 14:00:20;;;;;;;3.00;2.70;;;;;;;9.74;53.03;97242.81;8639107;23;20211;-89
2023/11/27 14:03:44;;;;;;;3.47;2.87;;;;;;;9.59;53.11;97228.22;8641031;23;20169;-90
2023/11/27 14:07:09;;;;;;;3.73;3.30;;;;;;;9.20;54.10;97212.81;8641796;23;20186;-89
2023/11/27 14:11:15;;;;;;;4.10;2.77;;;;;;;9.70;52.93;97198.56;8635835;23;20277;-91
2023/11/27 14:14:59;;;;;;;4.23;3.37;;;;;;;9.50;53.50;97208.13;8637139;23;20222;-90
2023/11/27 14:56:46;;;;;;;4.13;3.40;;;;;;;8.37;58.22;97109.31;8312048;23;20181;-93
2023/11/27 17:00:40;;;;;;;3.80;3.43;;;;;;;8.48;60.65;96871.41;8425615;23;20650;-91
2023/11/27 17:04:02;;;;;;;3.20;2.90;;;;;;;7.75;61.22;96769.25;8420153;23;20187;-93
2023/11/27 17:07:23;;;;;;;4.90;3.83;;;;;;;8.28;60.91;96866.44;8428421;23;20185;-93
2023/11/27 17:11:42;;;;;;;4.37;2.70;;;;;;;8.67;59.91;96862.88;8426973;23;20244;-92
2023/11/27 17:15:50;;;;;;;7.33;3.80;;;;;;;9.08;59.66;96854.50;8434051;23;20243;-94
2023/11/27 18:36:25;;;;;;;2.13;2.03;;;;;;;8.82;59.82;96766.47;8061968;24;20171;-91
2023/11/27 18:39:48;;;;;;;2.33;2.13;;;;;;;8.99;58.76;96765.41;8252426;23;20190;-90
